Time;durP1;ratioP1;P1;durP2;ratioP2;P2;SDS_P1;SDS_P2;PMS_P1;PMS_P2;Temp;Humidity;BMP_temperature;BMP_pressure;BME280_temperature;BME280_humidity;BME280_pressure;Samples;Min_cycle;Max_cycle;Signal;HPM_P1;HPM_P2
2021/06/12 00:01:52;;;;;;;7.90;4.07;;;15.30;99.90;;;;;;4155269;28;20038;-65
2021/06/12 00:03:53;;;;;;;6.90;4.33;;;15.30;99.90;;;;;;4155427;28;20041;-65
2021/06/12 00:05:55;;;;;;;9.33;4.60;;;15.20;99.90;;;;;;4155848;28;20033;-64
2021/06/12 00:07:56;;;;;;;7.57;4.90;;;15.20;99.90;;;;;;4155639;28;20095;-64
2021/06/12 00:09:57;;;;;;;8.53;4.00;;;15.10;99.90;;;;;;4155698;28;20041;-65
2021/06/12 00:11:58;;;;;;;5.47;4.03;;;15.10;99.90;;;;;;4166028;28;20049;-64
2021/06/12 00:13:59;;;;;;;4.93;3.77;;;15.10;99.90;;;;;;4172547;28;20025;-65
2021/06/12 00:16:00;;;;;;;4.13;3.67;;;15.10;99.90;;;;;;4171917;28;20037;-65
2021/06/12 00:18:04;;;;;;;6.83;3.27;;;15.10;99.90;;;;;;4172429;28;20036;-64
2021/06/12 00:20:08;;;;;;;9.67;4.67;;;15.00;99.90;;;;;;4172466;28;20041;-65
2021/06/12 00:22:09;;;;;;;7.37;4.07;;;15.00;99.90;;;;;;4170763;28;20036;-64
2021/06/12 00:24:10;;;;;;;8.40;4.60;;;15.00;99.90;;;;;;4171662;28;20102;-66
2021/06/12 00:26:12;;;;;;;6.30;4.60;;;15.00;99.90;;;;;;4171903;28;20033;-65
2021/06/12 00:28:13;;;;;;;6.13;4.10;;;15.00;99.90;;;;;;4171400;28;20049;-65
2021/06/12 00:30:15;;;;;;;5.83;4.07;;;15.00;99.90;;;;;;4172181;28;20086;-64
2021/06/12 00:32:16;;;;;;;8.40;4.70;;;15.00;99.90;;;;;;4155295;28;20107;-64
2021/06/12 00:34:17;;;;;;;4.53;3.70;;;15.00;99.90;;;;;;4155137;28;20049;-65
2021/06/12 00:36:21;;;;;;;12.40;3.97;;;14.90;99.90;;;;;;4155419;28;20825;-65
2021/06/12 00:38:22;;;;;;;7.43;3.70;;;14.90;99.90;;;;;;4155722;28;20370;-65
2021/06/12 00:40:24;;;;;;;5.30;3.80;;;14.90;99.90;;;;;;4155121;28;20045;-65
2021/06/12 00:42:25;;;;;;;7.37;3.53;;;14.90;99.90;;;;;;4154998;28;20057;-64
2021/06/12 00:44:26;;;;;;;7.07;4.27;;;14.90;99.90;;;;;;4159781;28;20084;-62
2021/06/12 00:46:28;;;;;;;6.80;3.77;;;14.70;99.90;;;;;;4158628;28;20445;-63
2021/06/12 00:48:29;;;;;;;6.73;4.50;;;14.70;99.90;;;;;;4157998;28;20396;-63
2021/06/12 00:50:33;;;;;;;6.27;3.73;;;14.60;99.90;;;;;;4159137;28;20030;-62
2021/06/12 00:52:36;;;;;;;7.43;4.60;;;14.60;99.90;;;;;;4158734;28;20052;-64
2021/06/12 00:54:38;;;;;;;4.63;3.70;;;14.60;99.90;;;;;;4159159;28;20021;-64
2021/06/12 00:56:39;;;;;;;9.77;4.40;;;14.50;99.90;;;;;;4157809;28;20084;-64
2021/06/12 00:58:44;;;;;;;5.50;4.03;;;14.50;99.90;;;;;;4158792;28;20091;-64
2021/06/12 01:00:45;;;;;;;6.97;4.10;;;14.40;99.90;;;;;;4159695;28;20095;-64
2021/06/12 01:02:48;;;;;;;7.27;4.87;;;14.40;99.90;;;;;;4158873;28;20103;-64
2021/06/12 01:04:49;;;;;;;6.53;4.00;;;14.30;99.90;;;;;;4159071;28;20929;-64
2021/06/12 01:06:51;;;;;;;7.93;4.73;;;14.20;99.90;;;;;;4158170;28;20037;-63
2021/06/12 01:08:52;;;;;;;6.77;4.23;;;14.30;99.90;;;;;;4158243;28;20103;-64
2021/06/12 01:10:53;;;;;;;7.77;4.07;;;14.30;99.90;;;;;;4158508;28;20096;-64
2021/06/12 01:13:16;;;;;;;5.53;4.07;;;14.20;99.90;;;;;;4158779;28;20030;-63
2021/06/12 01:15:18;;;;;;;7.90;4.50;;;14.20;99.90;;;;;;4157932;28;20510;-63
2021/06/12 01:17:28;;;;;;;9.73;4.70;;;14.10;99.90;;;;;;4159139;28;20111;-64
2021/06/12 01:20:08;;;;;;;5.78;3.85;;;14.10;99.90;;;;;;4174916;28;20025;-62
2021/06/12 01:22:18;;;;;;;5.17;4.67;;;14.00;99.90;;;;;;4174837;28;20040;-63
2021/06/12 01:24:26;;;;;;;11.43;5.25;;;14.00;99.90;;;;;;4174056;28;20106;-64
2021/06/12 01:26:54;;;;;;;9.43;4.63;;;14.00;99.90;;;;;;4174550;28;20063;-63
2021/06/12 01:29:27;;;;;;;5.93;3.73;;;14.10;99.90;;;;;;4175620;28;20074;-63
2021/06/12 01:31:30;;;;;;;6.07;4.03;;;14.10;99.90;;;;;;4136856;28;20048;-64
2021/06/12 01:33:32;;;;;;;6.10;4.27;;;14.10;99.90;;;;;;4173802;28;20099;-64
2021/06/12 01:35:38;;;;;;;6.27;4.13;;;14.10;99.90;;;;;;4174073;28;20037;-64
2021/06/12 01:37:42;;;;;;;4.83;3.50;;;14.10;99.90;;;;;;4163713;28;20033;-64
2021/06/12 01:39:45;;;;;;;5.40;4.30;;;14.10;99.90;;;;;;4140015;28;20068;-63
2021/06/12 01:41:48;;;;;;;8.10;4.13;;;14.10;99.90;;;;;;4157836;28;20037;-64
2021/06/12 01:43:51;;;;;;;6.40;4.40;;;14.10;99.90;;;;;;4157958;28;20034;-64
2021/06/12 01:45:53;;;;;;;11.00;4.30;;;14.10;99.90;;;;;;4156935;28;20076;-63
2021/06/12 01:47:55;;;;;;;7.77;3.73;;;14.10;99.90;;;;;;4157596;28;20037;-64
2021/06/12 01:49:58;;;;;;;5.40;3.90;;;14.10;99.90;;;;;;4156186;28;20037;-64
2021/06/12 01:52:00;;;;;;;5.30;4.17;;;14.00;99.90;;;;;;4174634;28;20017;-64
2021/06/12 01:54:02;;;;;;;5.17;4.07;;;14.00;99.90;;;;;;4172672;28;20655;-64
2021/06/12 01:56:05;;;;;;;5.77;4.33;;;14.00;99.90;;;;;;4174094;28;20052;-63
2021/06/12 01:58:20;;;;;;;6.80;4.50;;;13.90;99.90;;;;;;4173141;28;20040;-64
2021/06/12 02:00:22;;;;;;;7.47;4.10;;;13.90;99.90;;;;;;4173591;28;21001;-64
2021/06/12 02:02:23;;;;;;;5.80;4.10;;;13.90;99.90;;;;;;4173313;28;20103;-63
2021/06/12 02:04:25;;;;;;;7.47;4.03;;;13.90;99.90;;;;;;4173254;28;20033;-63
2021/06/12 02:06:27;;;;;;;7.10;4.17;;;13.80;99.90;;;;;;4173053;28;20066;-63
2021/06/12 02:08:30;;;;;;;5.93;4.20;;;13.70;99.90;;;;;;4173577;28;20041;-65
2021/06/12 02:10:32;;;;;;;8.83;4.57;;;13.70;99.90;;;;;;4173310;28;20111;-64
2021/06/12 02:12:35;;;;;;;7.47;4.30;;;13.70;99.90;;;;;;4174285;28;20074;-64
2021/06/12 02:14:39;;;;;;;4.63;3.77;;;13.70;99.90;;;;;;4174261;28;20037;-64
2021/06/12 02:16:40;;;;;;;8.60;4.60;;;13.70;99.90;;;;;;4173210;28;20106;-64
2021/06/12 02:18:45;;;;;;;9.47;4.50;;;13.60;99.90;;;;;;4173968;28;20115;-63
2021/06/12 02:20:50;;;;;;;5.70;4.13;;;13.60;99.90;;;;;;4174108;28;20083;-64
2021/06/12 02:22:53;;;;;;;8.93;4.60;;;13.50;99.90;;;;;;4172503;28;20053;-63
2021/06/12 02:24:54;;;;;;;6.43;4.03;;;13.40;99.90;;;;;;4157365;28;20079;-63
2021/06/12 02:26:57;;;;;;;9.63;4.23;;;13.40;99.90;;;;;;4157739;28;20026;-64
2021/06/12 02:28:59;;;;;;;7.03;4.23;;;13.40;99.90;;;;;;4157985;28;20091;-64
2021/06/12 02:31:10;;;;;;;7.23;4.67;;;13.30;99.90;;;;;;4156851;28;20711;-64
2021/06/12 02:33:16;;;;;;;5.30;3.93;;;13.30;99.90;;;;;;4156130;28;20029;-63
2021/06/12 02:35:17;;;;;;;8.57;3.80;;;13.30;99.90;;;;;;4156671;28;20034;-62
2021/06/12 02:37:18;;;;;;;6.20;4.20;;;13.30;99.90;;;;;;4157262;28;20123;-64
2021/06/12 02:39:20;;;;;;;6.60;4.07;;;13.30;99.90;;;;;;4156721;28;20531;-64
2021/06/12 02:41:22;;;;;;;5.63;3.90;;;13.30;99.90;;;;;;4156875;28;20022;-64
2021/06/12 02:43:24;;;;;;;6.30;4.10;;;13.30;99.90;;;;;;4158140;28;20017;-64
2021/06/12 02:45:26;;;;;;;6.37;3.83;;;13.40;99.90;;;;;;4156070;28;20053;-64
2021/06/12 02:47:29;;;;;;;6.47;4.30;;;13.50;99.90;;;;;;4138491;28;20041;-64
2021/06/12 02:49:36;;;;;;;7.27;4.80;;;13.60;99.90;;;;;;4156177;28;20812;-63
2021/06/12 02:51:42;;;;;;;10.90;4.47;;;13.70;99.90;;;;;;4156968;28;20068;-64
2021/06/12 02:53:44;;;;;;;6.93;4.67;;;13.90;99.90;;;;;;4156632;28;20033;-64
2021/06/12 02:55:50;;;;;;;4.60;3.93;;;14.00;99.90;;;;;;4139002;28;20469;-64
2021/06/12 02:57:53;;;;;;;6.37;4.10;;;14.10;99.90;;;;;;4156640;28;20138;-63
2021/06/12 02:59:56;;;;;;;6.93;4.73;;;14.10;99.90;;;;;;4156368;28;20091;-64
2021/06/12 03:02:00;;;;;;;10.00;4.40;;;14.00;99.90;;;;;;4156425;28;20045;-63
2021/06/12 03:04:02;;;;;;;6.90;4.20;;;13.90;99.90;;;;;;4156691;28;20029;-63
2021/06/12 03:06:06;;;;;;;6.63;4.30;;;13.80;99.90;;;;;;4156392;28;20033;-64
2021/06/12 03:08:08;;;;;;;10.73;4.23;;;13.80;99.90;;;;;;4171906;28;20033;-64
2021/06/12 03:10:10;;;;;;;5.83;4.03;;;13.80;99.90;;;;;;4173354;28;20049;-64
2021/06/12 03:12:12;;;;;;;10.30;4.30;;;13.80;99.90;;;;;;4172841;28;20029;-63
2021/06/12 03:14:15;;;;;;;7.67;4.40;;;13.80;99.90;;;;;;4171774;28;20056;-64
2021/06/12 03:16:17;;;;;;;5.20;4.23;;;13.80;99.90;;;;;;4171385;28;20114;-63
2021/06/12 03:18:18;;;;;;;5.67;4.00;;;13.90;99.90;;;;;;4156581;28;20100;-63
2021/06/12 03:20:20;;;;;;;9.17;4.93;;;14.30;99.90;;;;;;4155657;28;20096;-64
2021/06/12 03:22:22;;;;;;;7.30;4.67;;;14.70;99.90;;;;;;4156082;28;20084;-65
2021/06/12 03:24:24;;;;;;;11.07;4.37;;;14.90;99.90;;;;;;4156293;28;20022;-64
2021/06/12 03:26:26;;;;;;;10.77;4.57;;;15.10;99.90;;;;;;4156502;28;20037;-64
2021/06/12 03:28:30;;;;;;;10.93;4.20;;;15.50;99.90;;;;;;4156466;28;20199;-63
2021/06/12 03:30:31;;;;;;;8.07;4.63;;;15.80;99.90;;;;;;4156671;28;20052;-64
2021/06/12 03:32:33;;;;;;;10.13;5.43;;;16.20;99.90;;;;;;4156589;28;20428;-63
2021/06/12 03:34:34;;;;;;;11.70;5.40;;;16.40;99.90;;;;;;4156299;28;20083;-64
2021/06/12 03:36:36;;;;;;;13.27;5.30;;;16.60;99.90;;;;;;4156488;28;20052;-64
2021/06/12 03:38:37;;;;;;;18.60;4.70;;;16.70;99.90;;;;;;4156036;28;20033;-64
2021/06/12 03:40:38;;;;;;;8.37;4.77;;;16.70;99.90;;;;;;4156698;28;20045;-64
2021/06/12 03:42:40;;;;;;;10.97;4.63;;;16.80;99.90;;;;;;4156174;28;20060;-64
2021/06/12 03:44:44;;;;;;;13.23;4.55;;;17.20;99.90;;;;;;4155970;28;20025;-64
2021/06/12 03:46:47;;;;;;;10.95;4.70;;;17.50;99.90;;;;;;4155389;28;20091;-64
2021/06/12 03:48:50;;;;;;;9.05;4.60;;;18.10;99.90;;;;;;4156196;28;20037;-63
2021/06/12 03:50:53;;;;;;;10.48;4.28;;;18.60;99.90;;;;;;4156189;28;20084;-64
2021/06/12 03:52:54;;;;;;;7.28;4.20;;;19.10;99.90;;;;;;4154680;28;20551;-64
2021/06/12 03:54:57;;;;;;;12.43;4.35;;;19.60;99.90;;;;;;4155873;28;20021;-64
2021/06/12 03:56:59;;;;;;;5.45;3.78;;;20.10;99.90;;;;;;4155873;28;20071;-64
2021/06/12 03:59:01;;;;;;;4.40;3.45;;;20.60;99.90;;;;;;4156460;28;20029;-64
2021/06/12 04:01:02;;;;;;;4.80;3.72;;;21.00;99.90;;;;;;4156847;28;20076;-64
2021/06/12 04:03:03;;;;;;;10.82;5.00;;;21.40;99.90;;;;;;4158948;28;20091;-63
2021/06/12 04:05:06;;;;;;;8.13;4.80;;;21.70;99.90;;;;;;4172440;28;20063;-64
2021/06/12 04:07:07;;;;;;;12.43;4.65;;;22.00;99.90;;;;;;4172369;28;20435;-63
2021/06/12 04:09:08;;;;;;;11.55;5.45;;;22.30;99.90;;;;;;4172115;28;20029;-64
2021/06/12 04:11:09;;;;;;;15.95;6.63;;;22.50;99.90;;;;;;4171972;28;20094;-65
2021/06/12 04:13:10;;;;;;;10.48;5.32;;;22.40;99.90;;;;;;4171218;28;20087;-62
2021/06/12 04:15:12;;;;;;;9.80;5.80;;;22.30;99.90;;;;;;4172084;28;20024;-62
2021/06/12 04:17:15;;;;;;;8.43;5.47;;;22.20;99.90;;;;;;4171575;28;20078;-63
2021/06/12 04:19:16;;;;;;;13.23;5.28;;;22.20;99.90;;;;;;4171250;28;20079;-65
2021/06/12 04:21:17;;;;;;;9.10;4.70;;;22.30;99.90;;;;;;4172052;28;20171;-64
2021/06/12 04:23:19;;;;;;;11.00;4.50;;;22.50;99.90;;;;;;4171853;28;20037;-64
2021/06/12 04:25:20;;;;;;;10.95;4.95;;;22.20;99.90;;;;;;4161526;28;20033;-64
2021/06/12 04:27:21;;;;;;;10.50;4.65;;;22.00;99.90;;;;;;4155862;28;20041;-64
2021/06/12 04:29:22;;;;;;;10.95;5.22;;;22.40;99.90;;;;;;4155186;28;20083;-63
2021/06/12 04:31:23;;;;;;;6.65;4.85;;;22.60;99.90;;;;;;4158137;28;20539;-63
2021/06/12 04:33:24;;;;;;;7.28;4.28;;;22.80;99.90;;;;;;4155507;28;20034;-66
2021/06/12 04:35:28;;;;;;;12.10;5.50;;;22.80;99.90;;;;;;4155192;28;20033;-64
2021/06/12 04:37:29;;;;;;;7.75;4.93;;;22.60;99.90;;;;;;4155275;28;20478;-65
2021/06/12 04:39:31;;;;;;;9.32;4.47;;;22.60;99.90;;;;;;4165849;28;20037;-64
2021/06/12 04:41:32;;;;;;;6.32;4.50;;;22.40;99.90;;;;;;4170838;28;20037;-66
2021/06/12 04:43:33;;;;;;;9.77;4.93;;;22.30;99.90;;;;;;4171843;28;20045;-64
2021/06/12 04:45:35;;;;;;;9.63;4.93;;;22.10;99.90;;;;;;4172088;28;20388;-64
2021/06/12 04:47:38;;;;;;;10.68;5.07;;;22.00;99.90;;;;;;4170331;28;20994;-64
2021/06/12 04:49:39;;;;;;;7.32;4.03;;;21.90;99.90;;;;;;4171826;28;20034;-64
2021/06/12 04:51:40;;;;;;;7.32;4.95;;;22.20;99.90;;;;;;4171664;28;20439;-65
2021/06/12 04:53:41;;;;;;;10.05;4.07;;;22.30;99.90;;;;;;4161747;28;20037;-64
2021/06/12 04:55:43;;;;;;;9.95;4.65;;;22.30;99.90;;;;;;4154873;28;20469;-63
2021/06/12 04:57:44;;;;;;;9.52;4.40;;;22.50;99.90;;;;;;4155240;28;20655;-63
2021/06/12 04:59:45;;;;;;;8.20;3.80;;;22.50;99.70;;;;;;4155340;28;20037;-64
2021/06/12 05:01:46;;;;;;;8.95;4.20;;;22.80;99.70;;;;;;4171251;28;20564;-63
2021/06/12 05:03:47;;;;;;;6.75;4.15;;;23.40;99.10;;;;;;4171744;28;20029;-62
2021/06/12 05:05:50;;;;;;;11.38;4.05;;;23.80;97.90;;;;;;4170737;28;20544;-64
2021/06/12 05:07:51;;;;;;;11.27;5.55;;;23.90;97.20;;;;;;4171174;28;20086;-63
2021/06/12 05:09:52;;;;;;;7.75;3.78;;;24.00;96.60;;;;;;4170668;28;20090;-63
2021/06/12 05:11:53;;;;;;;8.32;4.20;;;24.30;96.00;;;;;;4171641;28;20499;-63
2021/06/12 05:13:55;;;;;;;8.30;3.92;;;24.90;95.50;;;;;;4153211;28;20049;-63
2021/06/12 05:15:56;;;;;;;7.00;4.20;;;25.40;94.80;;;;;;4170882;28;20923;-63
2021/06/12 05:17:59;;;;;;;7.32;4.60;;;25.50;93.80;;;;;;4171388;28;20037;-63
2021/06/12 05:20:00;;;;;;;11.45;4.65;;;25.50;93.10;;;;;;4170430;28;20110;-63
2021/06/12 05:22:02;;;;;;;10.90;4.35;;;25.50;92.90;;;;;;4171477;28;20037;-62
2021/06/12 05:24:03;;;;;;;11.43;4.53;;;25.70;92.40;;;;;;4170363;28;20127;-63
2021/06/12 05:26:06;;;;;;;10.30;4.80;;;25.90;91.80;;;;;;4147574;28;20446;-63
2021/06/12 05:28:07;;;;;;;8.18;5.05;;;25.90;91.60;;;;;;4155034;28;20038;-63
2021/06/12 05:30:09;;;;;;;13.73;5.85;;;25.60;91.20;;;;;;4155214;28;20814;-63
2021/06/12 05:32:10;;;;;;;9.23;4.97;;;25.50;91.40;;;;;;4158038;28;20052;-63
2021/06/12 05:34:11;;;;;;;19.98;7.88;;;25.30;91.50;;;;;;4157433;28;20037;-62
2021/06/12 05:36:13;;;;;;;26.08;9.52;;;25.10;91.40;;;;;;4156491;28;20049;-62
2021/06/12 05:38:15;;;;;;;25.73;12.15;;;24.50;91.70;;;;;;4157112;28;20076;-63
2021/06/12 05:40:17;;;;;;;17.42;9.75;;;24.00;92.40;;;;;;4156854;28;20087;-63
2021/06/12 05:42:18;;;;;;;21.15;10.15;;;23.90;93.00;;;;;;4162527;28;20053;-62
2021/06/12 05:44:19;;;;;;;23.95;10.60;;;23.90;93.30;;;;;;4172328;28;20455;-63
2021/06/12 05:46:20;;;;;;;25.08;11.23;;;24.10;93.20;;;;;;4173589;28;20025;-62
2021/06/12 05:48:24;;;;;;;20.77;10.68;;;24.40;92.70;;;;;;4173682;28;20447;-62
2021/06/12 05:50:26;;;;;;;17.05;8.82;;;24.80;92.20;;;;;;4172960;28;20087;-63
2021/06/12 05:52:27;;;;;;;15.50;9.02;;;25.60;91.50;;;;;;4173278;28;20049;-64
2021/06/12 05:54:28;;;;;;;18.13;8.50;;;26.00;90.50;;;;;;4173591;28;20033;-63
2021/06/12 05:56:29;;;;;;;15.32;7.85;;;26.40;89.70;;;;;;4172676;28;20102;-64
2021/06/12 05:58:32;;;;;;;18.13;7.10;;;26.70;88.20;;;;;;4172666;28;20507;-63
2021/06/12 06:00:33;;;;;;;15.45;7.60;;;26.70;87.30;;;;;;4161836;28;20034;-65
2021/06/12 06:02:34;;;;;;;22.98;8.32;;;26.90;87.50;;;;;;4157434;28;20641;-65
2021/06/12 06:04:35;;;;;;;15.02;6.97;;;26.70;86.90;;;;;;4163873;28;20021;-63
2021/06/12 06:06:36;;;;;;;11.95;6.25;;;26.70;87.20;;;;;;4173540;28;20462;-63
2021/06/12 06:08:37;;;;;;;12.68;6.90;;;26.60;87.70;;;;;;4173678;28;20029;-64
2021/06/12 06:10:38;;;;;;;14.90;7.90;;;26.60;87.80;;;;;;4173415;28;20513;-63
2021/06/12 06:12:39;;;;;;;14.88;6.97;;;26.50;87.10;;;;;;4172638;28;20041;-63
2021/06/12 06:14:40;;;;;;;18.30;6.93;;;26.20;88.10;;;;;;4173738;28;20033;-62
2021/06/12 06:16:42;;;;;;;10.77;6.40;;;25.90;87.80;;;;;;4171390;28;20041;-65
2021/06/12 06:18:43;;;;;;;14.20;6.30;;;26.10;88.20;;;;;;4173228;28;20182;-63
2021/06/12 06:20:45;;;;;;;14.48;5.50;;;26.30;87.10;;;;;;4173192;28;20039;-62
2021/06/12 06:22:46;;;;;;;9.48;5.95;;;25.90;86.60;;;;;;4173358;28;20083;-63
2021/06/12 06:24:47;;;;;;;6.75;5.07;;;25.70;87.00;;;;;;4173329;28;20025;-63
2021/06/12 06:26:48;;;;;;;8.77;4.63;;;25.30;87.70;;;;;;4170669;28;20076;-64
2021/06/12 06:28:50;;;;;;;10.23;4.85;;;25.30;88.10;;;;;;4171909;28;20087;-64
2021/06/12 06:30:51;;;;;;;6.60;4.55;;;25.00;88.40;;;;;;4173154;28;20095;-63
2021/06/12 06:32:52;;;;;;;9.18;5.03;;;24.80;89.40;;;;;;4166421;28;20544;-64
2021/06/12 06:34:53;;;;;;;13.35;4.82;;;24.80;90.00;;;;;;4165482;28;20111;-64
2021/06/12 06:36:54;;;;;;;5.72;3.08;;;25.00;90.30;;;;;;4156362;28;20037;-63
2021/06/12 06:38:55;;;;;;;5.25;3.10;;;25.10;89.40;;;;;;4155744;28;20460;-65
2021/06/12 06:40:56;;;;;;;5.25;4.18;;;24.70;88.60;;;;;;4156406;28;20087;-61
2021/06/12 06:42:58;;;;;;;6.50;4.40;;;24.30;89.50;;;;;;4156269;28;20045;-62
2021/06/12 06:44:59;;;;;;;9.25;5.18;;;24.30;90.30;;;;;;4156759;28;20033;-65
2021/06/12 06:47:00;;;;;;;7.45;4.57;;;24.10;90.50;;;;;;4155811;28;20033;-63
2021/06/12 06:49:01;;;;;;;7.43;4.30;;;24.10;91.00;;;;;;4156282;28;20501;-64
2021/06/12 06:51:02;;;;;;;9.30;3.50;;;24.40;91.10;;;;;;4155901;28;20091;-64
2021/06/12 06:53:03;;;;;;;5.18;2.85;;;25.00;90.70;;;;;;4155844;28;20045;-66
2021/06/12 06:55:05;;;;;;;3.42;2.90;;;25.60;90.10;;;;;;4155921;28;20130;-64
2021/06/12 06:57:06;;;;;;;6.80;3.78;;;26.10;89.20;;;;;;4155882;28;20496;-66
2021/06/12 06:59:07;;;;;;;4.80;3.40;;;26.50;88.30;;;;;;4138487;28;20037;-65
2021/06/12 07:01:09;;;;;;;7.28;3.60;;;26.40;87.20;;;;;;4155980;28;20465;-71
2021/06/12 07:03:10;;;;;;;5.28;3.17;;;25.90;88.10;;;;;;4156556;28;20048;-67
2021/06/12 07:05:11;;;;;;;7.18;3.50;;;25.70;87.80;;;;;;4155030;28;20134;-67
2021/06/12 07:07:12;;;;;;;6.13;3.10;;;25.90;87.60;;;;;;4170731;28;20099;-66
2021/06/12 07:09:14;;;;;;;5.15;3.05;;;25.50;87.10;;;;;;4171158;28;20036;-65
2021/06/12 07:11:15;;;;;;;3.53;2.40;;;25.30;87.70;;;;;;4171187;28;20037;-65
2021/06/12 07:13:20;;;;;;;4.10;2.80;;;25.50;88.20;;;;;;4172161;28;20083;-64
2021/06/12 07:15:21;;;;;;;6.10;2.72;;;25.60;85.90;;;;;;4166528;28;20103;-65
2021/06/12 07:17:23;;;;;;;3.67;2.90;;;25.40;86.90;;;;;;4172864;28;20029;-64
2021/06/12 07:19:24;;;;;;;4.90;2.80;;;25.10;86.80;;;;;;4169568;28;20037;-65
2021/06/12 07:21:25;;;;;;;4.90;2.63;;;25.10;87.20;;;;;;4155611;28;20056;-65
2021/06/12 07:23:26;;;;;;;3.75;2.92;;;25.20;87.30;;;;;;4155792;28;20041;-64
2021/06/12 07:25:27;;;;;;;3.45;2.80;;;25.50;87.00;;;;;;4167081;28;20070;-65
2021/06/12 07:27:28;;;;;;;5.90;2.60;;;25.70;86.60;;;;;;4160591;28;20111;-66
2021/06/12 07:29:29;;;;;;;4.32;2.80;;;25.80;86.60;;;;;;4162413;28;20164;-67
2021/06/12 07:31:30;;;;;;;2.22;2.03;;;26.00;85.20;;;;;;4167638;28;20098;-67
2021/06/12 07:33:32;;;;;;;3.92;2.40;;;25.90;84.30;;;;;;4169247;28;20110;-68
2021/06/12 07:35:34;;;;;;;3.13;2.83;;;25.50;84.30;;;;;;4165281;28;20988;-66
2021/06/12 07:37:35;;;;;;;4.30;2.47;;;25.40;85.00;;;;;;4172048;28;20094;-67
2021/06/12 07:39:36;;;;;;;3.70;2.35;;;25.00;85.20;;;;;;4171238;28;20665;-66
2021/06/12 07:41:38;;;;;;;3.22;2.58;;;24.70;86.20;;;;;;4172061;28;20515;-64
2021/06/12 07:43:41;;;;;;;5.57;2.47;;;24.60;86.70;;;;;;4171906;28;20037;-66
2021/06/12 07:45:42;;;;;;;3.83;2.58;;;24.40;87.50;;;;;;4172072;28;20032;-65
2021/06/12 07:47:43;;;;;;;3.40;2.88;;;24.40;87.80;;;;;;4171793;28;20037;-64
2021/06/12 07:49:44;;;;;;;5.55;2.60;;;24.40;87.60;;;;;;4171338;28;20044;-65
2021/06/12 07:51:45;;;;;;;5.70;3.25;;;24.70;87.40;;;;;;4172320;28;20876;-70
2021/06/12 07:53:46;;;;;;;7.88;2.90;;;25.20;86.70;;;;;;4170669;28;20477;-65
2021/06/12 07:55:48;;;;;;;5.50;2.92;;;25.50;86.00;;;;;;4170314;28;20033;-66
2021/06/12 07:57:49;;;;;;;3.88;2.28;;;25.50;85.10;;;;;;4171425;28;20029;-65
2021/06/12 07:59:50;;;;;;;5.10;2.78;;;25.60;85.20;;;;;;4171351;28;20037;-64
2021/06/12 08:01:51;;;;;;;5.35;2.95;;;25.70;85.00;;;;;;4172080;28;20508;-65
2021/06/12 08:03:52;;;;;;;6.38;2.83;;;25.40;84.20;;;;;;4171339;28;20482;-66
2021/06/12 08:05:54;;;;;;;2.38;2.17;;;25.30;84.30;;;;;;4171615;28;20032;-64
2021/06/12 08:07:55;;;;;;;2.97;2.70;;;25.00;83.80;;;;;;4171444;28;20037;-65
2021/06/12 08:09:57;;;;;;;4.45;2.30;;;24.80;83.60;;;;;;4169496;28;20440;-66
2021/06/12 08:11:58;;;;;;;5.32;2.40;;;24.60;83.50;;;;;;4172264;28;20037;-67
2021/06/12 08:14:00;;;;;;;5.53;2.13;;;24.50;83.40;;;;;;4171753;28;20021;-67
2021/06/12 08:16:03;;;;;;;2.92;2.35;;;24.70;83.80;;;;;;4171077;28;20074;-65
2021/06/12 08:18:04;;;;;;;2.92;2.08;;;24.80;83.40;;;;;;4155521;28;20030;-64
2021/06/12 08:20:06;;;;;;;2.90;1.92;;;25.00;83.00;;;;;;4154703;28;20565;-67
2021/06/12 08:22:07;;;;;;;4.55;2.20;;;24.90;82.00;;;;;;4154622;28;20398;-66
2021/06/12 08:24:09;;;;;;;3.28;1.83;;;24.90;81.60;;;;;;4155118;28;20111;-67
2021/06/12 08:26:11;;;;;;;3.08;1.90;;;24.80;80.60;;;;;;4155125;28;20052;-66
2021/06/12 08:28:12;;;;;;;4.18;1.98;;;24.90;80.00;;;;;;4154443;28;20544;-66
2021/06/12 08:30:13;;;;;;;2.33;1.75;;;24.80;80.30;;;;;;4155715;28;20029;-65
2021/06/12 08:32:15;;;;;;;5.00;1.75;;;24.80;79.50;;;;;;4153671;28;20041;-67
2021/06/12 08:34:17;;;;;;;2.10;1.90;;;24.60;79.20;;;;;;4155502;28;20907;-67
2021/06/12 08:36:18;;;;;;;4.55;2.33;;;24.60;79.70;;;;;;4154963;28;20041;-65
2021/06/12 08:38:19;;;;;;;3.00;2.33;;;24.60;81.00;;;;;;4154803;28;20057;-68
2021/06/12 08:40:22;;;;;;;4.40;2.13;;;24.40;81.10;;;;;;4153683;28;20555;-66
2021/06/12 08:42:23;;;;;;;3.03;2.00;;;24.50;82.00;;;;;;4154401;28;20091;-65
2021/06/12 08:44:26;;;;;;;4.15;2.03;;;24.70;81.30;;;;;;4165030;28;20045;-65
2021/06/12 08:46:28;;;;;;;8.73;2.55;;;24.80;81.20;;;;;;4166131;28;20021;-64
2021/06/12 08:48:30;;;;;;;2.55;2.30;;;25.10;81.40;;;;;;4154747;28;20025;-65
2021/06/12 08:50:31;;;;;;;5.40;2.88;;;25.20;81.60;;;;;;4156256;28;20029;-66
2021/06/12 08:52:35;;;;;;;6.35;2.60;;;25.20;81.50;;;;;;4154535;28;20026;-66
2021/06/12 08:54:41;;;;;;;7.00;2.90;;;25.30;80.70;;;;;;4155074;28;20037;-66
2021/06/12 08:56:42;;;;;;;5.03;2.40;;;25.00;80.30;;;;;;4154995;28;20030;-66
2021/06/12 08:58:43;;;;;;;6.03;2.40;;;24.90;80.20;;;;;;4155166;28;20926;-64
2021/06/12 09:00:45;;;;;;;5.30;2.10;;;24.80;80.00;;;;;;4154934;28;20095;-65
2021/06/12 09:03:10;;;;;;;5.30;2.10;;;24.50;78.90;;;;;;4155453;28;20029;-63
2021/06/12 09:05:11;;;;;;;4.28;3.25;;;24.40;78.10;;;;;;4139383;28;20124;-65
2021/06/12 09:07:34;;;;;;;3.00;2.15;;;24.30;79.60;;;;;;4140124;28;20747;-66
2021/06/12 09:09:42;;;;;;;2.13;1.92;;;24.30;79.20;;;;;;4156910;28;20087;-65
2021/06/12 09:11:43;;;;;;;3.78;1.92;;;24.20;78.80;;;;;;4139092;28;20046;-65
2021/06/12 09:13:57;;;;;;;4.35;2.08;;;24.00;79.60;;;;;;4139161;28;20045;-65
2021/06/12 09:16:01;;;;;;;2.30;1.90;;;23.90;79.90;;;;;;4157774;28;20045;-65
2021/06/12 09:18:05;;;;;;;6.18;2.72;;;23.90;80.40;;;;;;4157822;28;20540;-66
2021/06/12 09:20:08;;;;;;;2.65;1.80;;;24.00;80.00;;;;;;4157452;28;20417;-65
2021/06/12 09:22:10;;;;;;;2.90;1.83;;;24.10;79.40;;;;;;4157398;28;20083;-65
2021/06/12 09:24:49;;;;;;;3.72;1.90;;;24.00;79.50;;;;;;4157700;28;20099;-67
2021/06/12 09:27:02;;;;;;;2.30;2.10;;;24.10;78.10;;;;;;4157868;28;20056;-66
2021/06/12 09:29:04;;;;;;;2.35;1.58;;;24.10;78.40;;;;;;4157952;28;20506;-67
2021/06/12 09:31:23;;;;;;;4.20;1.90;;;24.20;78.80;;;;;;4157544;28;20095;-65
2021/06/12 09:33:35;;;;;;;4.10;1.73;;;24.20;77.90;;;;;;4158690;28;20060;-66
2021/06/12 09:35:38;;;;;;;3.22;1.70;;;24.30;78.70;;;;;;4157570;28;20060;-66
2021/06/12 09:37:40;;;;;;;2.83;1.90;;;24.50;78.40;;;;;;4157481;28;20466;-66
2021/06/12 09:39:41;;;;;;;2.10;1.90;;;24.50;78.00;;;;;;4157156;28;20596;-66
2021/06/12 09:41:45;;;;;;;2.30;1.98;;;24.40;78.30;;;;;;4157427;28;20115;-66
2021/06/12 09:43:46;;;;;;;2.58;2.03;;;24.50;78.30;;;;;;4157675;28;20072;-64
2021/06/12 09:45:47;;;;;;;4.20;2.05;;;24.40;79.00;;;;;;4157370;28;20033;-64
2021/06/12 09:47:49;;;;;;;2.35;2.15;;;24.50;79.60;;;;;;4139549;28;20034;-64
2021/06/12 09:49:50;;;;;;;2.00;1.90;;;24.60;79.10;;;;;;4157356;28;20034;-65
2021/06/12 09:52:07;;;;;;;2.65;2.45;;;24.70;78.90;;;;;;4156606;28;20520;-65
2021/06/12 09:54:08;;;;;;;2.45;2.15;;;24.80;79.10;;;;;;4156019;28;20108;-65
2021/06/12 09:56:11;;;;;;;2.33;1.92;;;25.10;78.70;;;;;;4157069;28;20029;-64
2021/06/12 09:58:13;;;;;;;3.50;2.15;;;25.30;79.00;;;;;;4156200;28;20084;-66
2021/06/12 10:00:15;;;;;;;4.00;3.00;;;25.30;78.90;;;;;;4156716;28;20087;-67
2021/06/12 10:02:37;;;;;;;8.77;2.47;;;25.20;78.20;;;;;;4156051;28;20045;-64
2021/06/12 10:04:58;;;;;;;6.03;3.00;;;24.80;78.30;;;;;;4157423;28;20433;-66
2021/06/12 10:06:59;;;;;;;;;;;24.60;79.70;;;;;;4157699;28;20037;-66
2021/06/12 10:09:02;;;;;;;3.78;2.45;;;24.50;79.70;;;;;;4156517;28;20354;-66
2021/06/12 10:11:03;;;;;;;3.05;2.33;;;24.50;80.30;;;;;;4156858;28;20674;-64
2021/06/12 10:13:05;;;;;;;3.47;2.15;;;24.50;80.10;;;;;;4157211;28;20113;-64
2021/06/12 10:15:10;;;;;;;3.85;2.67;;;24.50;80.20;;;;;;4156756;28;20026;-64
2021/06/12 10:17:12;;;;;;;4.10;2.70;;;24.70;79.70;;;;;;4156071;28;20045;-65
2021/06/12 10:19:19;;;;;;;2.20;1.95;;;24.80;79.50;;;;;;4156654;28;20068;-64
2021/06/12 10:21:20;;;;;;;2.58;1.90;;;24.60;79.10;;;;;;4156689;28;20095;-64
2021/06/12 10:23:22;;;;;;;2.47;2.00;;;24.60;79.80;;;;;;4156566;28;20075;-65
2021/06/12 10:25:24;;;;;;;6.35;3.20;;;24.50;79.90;;;;;;4156881;28;20359;-65
2021/06/12 10:27:26;;;;;;;6.53;2.58;;;24.50;80.50;;;;;;4156995;28;20021;-64
2021/06/12 10:29:27;;;;;;;2.47;2.28;;;24.80;80.70;;;;;;4157123;28;20037;-65
2021/06/12 10:31:34;;;;;;;2.50;2.10;;;24.90;80.60;;;;;;4156600;28;20565;-65
2021/06/12 10:33:36;;;;;;;3.95;2.25;;;25.00;80.50;;;;;;4156445;28;20496;-65
2021/06/12 10:35:37;;;;;;;2.55;1.80;;;25.10;80.20;;;;;;4155563;28;20457;-65
2021/06/12 10:38:17;;;;;;;3.13;1.83;;;25.00;79.80;;;;;;4156482;28;20029;-66
2021/06/12 10:40:37;;;;;;;8.32;2.05;;;24.70;79.70;;;;;;4156800;28;20067;-65